Time;durP1;ratioP1;P1;durP2;ratioP2;P2;SDS_P1;SDS_P2;PMS_P1;PMS_P2;Temp;Humidity;BMP_temperature;BMP_pressure;BME280_temperature;BME280_humidity;BME280_pressure;Samples;Min_cycle;Max_cycle;Signal;HPM_P1;HPM_P2
2021/12/24 00:01:09;;;;;;;0.30;0.20;;;5.80;99.90;;;;;;5064255;28;20040;-58
2021/12/24 00:03:35;;;;;;;1.67;0.40;;;5.70;99.90;;;;;;5070348;28;20040;-59
2021/12/24 00:06:03;;;;;;;0.50;0.40;;;5.80;99.90;;;;;;5064145;28;20103;-58
2021/12/24 00:08:29;;;;;;;0.65;0.40;;;5.80;99.90;;;;;;5067139;28;20054;-55
2021/12/24 00:11:00;;;;;;;0.45;0.30;;;5.80;99.90;;;;;;5066594;28;20127;-58
2021/12/24 00:13:28;;;;;;;0.20;0.20;;;5.80;99.90;;;;;;5073600;28;20444;-58
2021/12/24 00:16:57;;;;;;;0.25;0.25;;;5.80;99.90;;;;;;5070136;28;20492;-58
2021/12/24 00:35:22;;;;;;;0.98;0.50;;;5.80;99.90;;;;;;5057251;28;20107;-54
2021/12/24 00:37:48;;;;;;;1.58;0.60;;;5.80;99.90;;;;;;5068790;28;20047;-60
2021/12/24 00:40:19;;;;;;;0.50;0.40;;;5.80;99.90;;;;;;5060740;28;20104;-56
2021/12/24 00:42:51;;;;;;;0.55;0.45;;;5.80;99.90;;;;;;5059124;28;20052;-59
2021/12/24 00:45:20;;;;;;;0.80;0.60;;;5.80;99.90;;;;;;5050035;28;20079;-58
2021/12/24 00:47:47;;;;;;;1.02;0.52;;;5.90;99.90;;;;;;5051112;28;20040;-58
2021/12/24 00:50:17;;;;;;;1.08;0.70;;;5.90;99.90;;;;;;5058481;28;20477;-59
2021/12/24 00:52:56;;;;;;;1.73;0.90;;;5.90;99.90;;;;;;5060867;28;20499;-60
2021/12/24 00:55:25;;;;;;;2.25;0.90;;;5.90;99.90;;;;;;5052805;28;20381;-54
2021/12/24 00:57:53;;;;;;;1.02;0.82;;;5.90;99.90;;;;;;5050559;28;20045;-59
2021/12/24 01:00:29;;;;;;;1.55;1.10;;;6.00;99.90;;;;;;5057899;28;20048;-59
2021/12/24 01:02:56;;;;;;;2.47;1.57;;;6.00;99.90;;;;;;5069652;28;20044;-60
2021/12/24 01:05:24;;;;;;;3.42;1.67;;;6.00;99.90;;;;;;5054505;28;20287;-60
2021/12/24 01:07:50;;;;;;;3.97;2.10;;;6.00;99.90;;;;;;5056458;28;20041;-58
2021/12/24 01:10:22;;;;;;;2.95;1.95;;;6.00;99.90;;;;;;5064202;28;20041;-59
2021/12/24 01:12:48;;;;;;;3.15;2.47;;;6.00;99.90;;;;;;5064789;28;20048;-57
2021/12/24 01:15:15;;;;;;;5.70;3.00;;;6.00;99.90;;;;;;5054129;28;20041;-60
2021/12/24 01:17:50;;;;;;;3.78;2.78;;;6.00;99.90;;;;;;5051290;28;20045;-57
2021/12/24 01:20:25;;;;;;;4.72;2.70;;;6.00;99.90;;;;;;5056197;28;20064;-57
2021/12/24 01:26:24;;;;;;;3.70;2.90;;;6.00;99.90;;;;;;5055385;28;20045;-58
2021/12/24 01:28:47;;;;;;;5.32;3.47;;;6.10;99.90;;;;;;5060280;28;20057;-57
2021/12/24 01:44:48;;;;;;;3.70;2.72;;;6.10;99.90;;;;;;5056608;28;20392;-57
2021/12/24 01:47:14;;;;;;;3.17;2.28;;;6.20;99.90;;;;;;5048617;28;20052;-59
2021/12/24 01:49:39;;;;;;;4.50;2.60;;;6.20;99.90;;;;;;5062944;28;20044;-58
2021/12/24 01:52:06;;;;;;;;;;;6.30;99.90;;;;;;5066465;28;20032;-59
2021/12/24 01:54:32;;;;;;;3.67;2.30;;;6.20;99.90;;;;;;5050015;28;19962;-59
2021/12/24 01:56:58;;;;;;;2.70;2.10;;;6.20;99.90;;;;;;5048329;28;20049;-60
2021/12/24 01:59:24;;;;;;;3.15;2.10;;;6.30;99.90;;;;;;5056200;28;20123;-56
2021/12/24 02:01:49;;;;;;;;;;;6.20;99.90;;;;;;5063665;28;20568;-58
2021/12/24 02:04:16;;;;;;;2.33;1.70;;;6.30;99.90;;;;;;5057026;28;19916;-58
2021/12/24 02:06:43;;;;;;;2.05;1.70;;;6.40;99.90;;;;;;5048701;28;20607;-53
2021/12/24 02:09:09;;;;;;;2.33;1.90;;;6.40;99.90;;;;;;5052963;28;20096;-59
2021/12/24 02:11:38;;;;;;;2.25;1.67;;;6.40;99.90;;;;;;5051900;28;20531;-57
2021/12/24 02:14:14;;;;;;;2.28;2.03;;;6.40;99.90;;;;;;5047224;28;20079;-59
2021/12/24 02:16:58;;;;;;;3.25;1.83;;;6.40;99.90;;;;;;5048419;28;20127;-58
2021/12/24 02:30:26;;;;;;;1.80;1.20;;;6.40;99.90;;;;;;5049937;28;20063;-58
2021/12/24 02:32:52;;;;;;;1.40;1.20;;;6.30;99.90;;;;;;5055379;28;20055;-58
2021/12/24 02:35:19;;;;;;;1.05;0.95;;;6.40;99.90;;;;;;5052208;28;20036;-59
2021/12/24 02:37:45;;;;;;;1.65;1.10;;;6.40;99.90;;;;;;5046042;28;20032;-60
2021/12/24 02:40:11;;;;;;;1.42;1.20;;;6.40;99.90;;;;;;5046944;28;20131;-56
2021/12/24 02:42:37;;;;;;;1.55;1.00;;;6.40;99.90;;;;;;5062977;28;20115;-58
2021/12/24 02:45:03;;;;;;;;;;;6.40;99.90;;;;;;5056597;28;20036;-59
2021/12/24 02:47:53;;;;;;;1.13;0.90;;;6.40;99.90;;;;;;5046104;28;19921;-60
2021/12/24 02:55:30;;;;;;;1.10;0.80;;;6.30;99.90;;;;;;5050733;28;20454;-59
2021/12/24 02:57:55;;;;;;;0.85;0.70;;;6.30;99.90;;;;;;5063749;28;20123;-60
2021/12/24 03:00:25;;;;;;;0.98;0.80;;;6.30;99.90;;;;;;5059440;28;20448;-59
2021/12/24 03:02:52;;;;;;;1.77;0.73;;;6.30;99.90;;;;;;5056169;28;20044;-59
2021/12/24 03:05:20;;;;;;;0.57;0.57;;;6.40;99.90;;;;;;5051251;28;20041;-60
2021/12/24 03:07:47;;;;;;;0.70;0.70;;;6.40;99.90;;;;;;5050299;28;20037;-60
2021/12/24 03:10:16;;;;;;;0.73;0.65;;;6.40;99.90;;;;;;5053851;28;20033;-60
2021/12/24 03:12:44;;;;;;;0.65;0.65;;;6.40;99.90;;;;;;5050295;28;20044;-60
2021/12/24 03:15:12;;;;;;;0.50;0.50;;;6.40;99.90;;;;;;5048086;28;20036;-60
2021/12/24 03:17:39;;;;;;;0.60;0.50;;;6.40;99.90;;;;;;5047982;28;20044;-60
2021/12/24 03:20:09;;;;;;;0.93;0.70;;;6.40;99.90;;;;;;5054974;28;20381;-61
2021/12/24 03:23:01;;;;;;;0.80;0.50;;;6.40;99.90;;;;;;5063078;28;20431;-59
2021/12/24 03:25:26;;;;;;;0.63;0.63;;;6.40;99.90;;;;;;5052240;28;20095;-59
2021/12/24 03:27:52;;;;;;;1.70;0.60;;;6.40;99.90;;;;;;5063421;28;20029;-60
2021/12/24 03:30:17;;;;;;;;;;;6.40;99.90;;;;;;5053264;28;20025;-59
2021/12/24 03:32:43;;;;;;;0.73;0.63;;;6.40;99.90;;;;;;5049885;28;19923;-58
2021/12/24 03:35:09;;;;;;;0.50;0.50;;;6.40;99.90;;;;;;5050698;28;20412;-60
2021/12/24 03:37:34;;;;;;;;;;;6.40;99.90;;;;;;5054474;28;20041;-61
2021/12/24 03:40:00;;;;;;;0.88;0.70;;;6.40;99.90;;;;;;5060118;28;19913;-59
2021/12/24 03:42:26;;;;;;;;;;;6.40;99.90;;;;;;5048853;28;20389;-60
2021/12/24 03:45:05;;;;;;;1.60;1.02;;;6.40;99.90;;;;;;5053091;28;19912;-57
2021/12/24 03:47:36;;;;;;;1.73;0.73;;;6.40;99.90;;;;;;5054749;28;20041;-61
2021/12/24 03:50:08;;;;;;;1.40;0.73;;;6.40;99.90;;;;;;5047499;28;20116;-58
2021/12/24 03:55:18;;;;;;;0.73;0.73;;;6.50;99.90;;;;;;5054395;28;20124;-59
2021/12/24 03:57:44;;;;;;;;;;;6.40;99.90;;;;;;5051824;28;20128;-59
2021/12/24 04:00:11;;;;;;;1.00;0.70;;;6.50;99.90;;;;;;5059041;28;19917;-60
2021/12/24 04:02:37;;;;;;;0.65;0.65;;;6.40;99.90;;;;;;5059560;28;20045;-58
2021/12/24 04:05:03;;;;;;;0.73;0.70;;;6.50;99.90;;;;;;5056727;28;20086;-56
2021/12/24 04:07:29;;;;;;;;;;;6.40;99.90;;;;;;5065278;28;20458;-60
2021/12/24 04:10:04;;;;;;;0.52;0.50;;;6.50;99.90;;;;;;5059098;28;19916;-58
2021/12/24 04:12:30;;;;;;;0.55;0.50;;;6.50;99.90;;;;;;5059420;28;20044;-58
2021/12/24 04:14:56;;;;;;;1.10;0.77;;;6.50;99.90;;;;;;5046811;28;20452;-57
2021/12/24 04:17:22;;;;;;;0.95;0.60;;;6.50;99.90;;;;;;5051938;28;20508;-60
2021/12/24 04:25:18;;;;;;;1.13;0.75;;;;;;;;;;5051534;28;20041;-57
2021/12/24 04:27:44;;;;;;;0.90;0.80;;;;;;;;;;5064369;28;20046;-58
2021/12/24 04:30:15;;;;;;;0.73;0.60;;;;;;;;;;5056267;28;20086;-58
2021/12/24 04:35:47;;;;;;;1.17;1.08;;;;;;;;;;5048164;28;20055;-59
2021/12/24 04:52:26;;;;;;;0.90;0.80;;;;;;;;;;5058492;28;20037;-58
2021/12/24 05:03:23;;;;;;;4.65;1.60;;;;;;;;;;5052733;28;20032;-60
2021/12/24 05:05:55;;;;;;;1.23;1.08;;;;;;;;;;5049647;28;20132;-58
2021/12/24 05:08:29;;;;;;;1.27;0.95;;;;;;;;;;5055001;28;20051;-60
2021/12/24 05:10:55;;;;;;;1.23;1.05;;;;;;;;;;5051291;28;20048;-59
2021/12/24 05:13:22;;;;;;;1.70;1.27;;;;;;;;;;5049896;28;20041;-60
2021/12/24 05:15:53;;;;;;;8.05;1.40;;;;;;;;;;5054928;28;20068;-61
2021/12/24 05:23:50;;;;;;;1.65;1.42;;;;;;;;;;5059855;28;20124;-59
2021/12/24 05:26:18;;;;;;;2.00;1.60;;;;;;;;;;5057383;28;20163;-52
2021/12/24 05:28:44;;;;;;;2.00;1.58;;;;;;;;;;5059299;28;20037;-53
2021/12/24 05:31:10;;;;;;;2.88;2.45;;;;;;;;;;5060299;28;20547;-55
2021/12/24 05:33:36;;;;;;;6.07;2.67;;;;;;;;;;5056295;28;20187;-59
2021/12/24 05:36:02;;;;;;;4.47;1.98;;;;;;;;;;5053990;28;20651;-61
2021/12/24 05:38:30;;;;;;;3.40;2.05;;;;;;;;;;5061240;28;20562;-59
2021/12/24 05:40:56;;;;;;;5.32;2.50;;;;;;;;;;5056069;28;20700;-58
2021/12/24 05:43:22;;;;;;;;;;;;;;;;;;5046901;28;20124;-55
2021/12/24 05:45:48;;;;;;;2.93;1.93;;;;;;;;;;5052722;28;19924;-63
2021/12/24 05:48:14;;;;;;;3.40;2.10;;;;;;;;;;5053438;28;20115;-58
2021/12/24 05:50:40;;;;;;;6.80;2.28;;;;;;;;;;5057053;28;20033;-55
2021/12/24 05:53:06;;;;;;;2.78;2.20;;;;;;;;;;5046360;28;20037;-60
2021/12/24 05:55:32;;;;;;;4.78;1.73;;;;;;;;;;5050815;28;20120;-55
2021/12/24 05:57:59;;;;;;;2.70;2.00;;;;;;;;;;5060157;28;20714;-60
2021/12/24 06:00:25;;;;;;;3.67;2.05;;;;;;;;;;5050208;28;20044;-58
2021/12/24 06:02:51;;;;;;;3.78;2.40;;;;;;;;;;5049669;28;20501;-60
2021/12/24 06:05:17;;;;;;;4.13;2.22;;;;;;;;;;5052347;28;20033;-60
2021/12/24 06:07:43;;;;;;;;;;;;;;;;;;5050058;28;20044;-58
2021/12/24 06:10:09;;;;;;;3.65;1.95;;;;;;;;;;5054996;28;19967;-59
2021/12/24 06:12:35;;;;;;;4.95;2.60;;;;;;;;;;5056832;28;20074;-65
2021/12/24 06:15:05;;;;;;;3.72;2.42;;;;;;;;;;5045615;28;20115;-59
2021/12/24 06:17:31;;;;;;;3.75;2.58;;;;;;;;;;5060449;28;20044;-58
2021/12/24 06:19:57;;;;;;;4.18;3.00;;;;;;;;;;5053593;28;20068;-60
2021/12/24 06:22:23;;;;;;;4.63;2.80;;;;;;;;;;5060838;28;20040;-57
2021/12/24 06:24:49;;;;;;;5.05;2.75;;;;;;;;;;5049873;28;20067;-58
2021/12/24 06:27:15;;;;;;;5.32;3.47;;;;;;;;;;5055499;28;20080;-58
2021/12/24 06:29:41;;;;;;;8.18;3.60;;;;;;;;;;5054550;28;20037;-58
2021/12/24 06:32:07;;;;;;;;;;;;;;;;;;5047213;28;20539;-58
2021/12/24 06:34:33;;;;;;;4.73;3.67;;;;;;;;;;5054049;28;20004;-57
2021/12/24 06:36:59;;;;;;;;;;;;;;;;;;5056622;28;20043;-55
2021/12/24 06:39:25;;;;;;;6.32;4.20;;;;;;;;;;5062279;28;19920;-59
2021/12/24 06:41:53;;;;;;;9.10;4.50;;;;;;;;;;5049004;28;20049;-58
2021/12/24 06:44:20;;;;;;;6.90;4.35;;;;;;;;;;5052685;28;20544;-64
2021/12/24 06:46:46;;;;;;;5.70;4.18;;;;;;;;;;5056541;28;20045;-62
2021/12/24 06:49:13;;;;;;;8.73;4.85;;;;;;;;;;5050616;28;20092;-56
2021/12/24 06:51:39;;;;;;;9.95;5.30;;;;;;;;;;5051246;28;20037;-59
2021/12/24 06:54:06;;;;;;;9.18;5.15;;;;;;;;;;5053652;28;20112;-57
2021/12/24 06:56:32;;;;;;;8.20;5.20;;;;;;;;;;5050659;28;20117;-58
2021/12/24 06:58:58;;;;;;;10.23;5.82;;;;;;;;;;5055904;28;20032;-57
2021/12/24 07:01:24;;;;;;;10.93;5.82;;;;;;;;;;5049602;28;20044;-55
2021/12/24 07:03:50;;;;;;;11.70;5.50;;;;;;;;;;5054033;28;20593;-57
2021/12/24 07:06:16;;;;;;;;;;;;;;;;;;5047011;28;20088;-59
2021/12/24 07:08:42;;;;;;;10.05;5.35;;;;;;;;;;5054409;28;20073;-55
2021/12/24 07:11:08;;;;;;;9.52;5.68;;;;;;;;;;5051630;28;20555;-56
2021/12/24 07:13:34;;;;;;;11.57;7.43;;;;;;;;;;5056873;28;20131;-61
2021/12/24 07:16:01;;;;;;;13.05;6.97;;;;;;;;;;5057487;28;20040;-59
2021/12/24 07:18:27;;;;;;;12.93;7.10;;;;;;;;;;5058392;28;20123;-59
2021/12/24 07:20:52;;;;;;;;;;;;;;;;;;5050847;28;20120;-59
2021/12/24 07:23:18;;;;;;;9.57;6.07;;;;;;;;;;5058978;28;19923;-60
2021/12/24 07:25:46;;;;;;;11.07;5.75;;;;;;;;;;5049260;28;20044;-58
2021/12/24 07:28:12;;;;;;;13.38;5.57;;;;;;;;;;5057748;28;20094;-55
2021/12/24 07:30:38;;;;;;;11.13;5.65;;;;;;;;;;5060436;28;20037;-58
2021/12/24 07:33:04;;;;;;;14.18;6.40;;;;;;;;;;5054015;28;20032;-61
2021/12/24 07:35:30;;;;;;;;;;;;;;;;;;5050484;28;20037;-60
2021/12/24 07:37:56;;;;;;;11.02;5.57;;;;;;;;;;5050310;28;20277;-56
2021/12/24 07:40:25;;;;;;;14.30;6.35;;;;;;;;;;5052057;28;20055;-60
2021/12/24 07:42:51;;;;;;;11.25;5.60;;;;;;;;;;5067870;28;20044;-58
2021/12/24 07:45:18;;;;;;;8.43;5.07;;;;;;;;;;5048118;28;20040;-60
2021/12/24 07:47:44;;;;;;;13.25;6.07;;;;;;;;;;5050248;28;20047;-57
2021/12/24 07:51:54;;;;;;;9.50;5.80;;;;;;;;;;5059992;28;20459;-54
2021/12/24 07:53:02;;;;;;;10.98;5.68;;;;;;;;;;5059803;28;20037;-57
2021/12/24 07:55:29;;;;;;;12.50;6.68;;;;;;;;;;5052817;28;20039;-60
2021/12/24 07:57:55;;;;;;;10.10;6.30;;;;;;;;;;5065855;28;20041;-59
2021/12/24 08:00:26;;;;;;;13.95;7.32;;;;;;;;;;5055873;28;20086;-60
2021/12/24 08:02:53;;;;;;;15.18;7.40;;;;;;;;;;5060999;28;20523;-59
2021/12/24 08:05:22;;;;;;;13.35;6.40;;;;;;;;;;5052067;28;20041;-59
2021/12/24 08:07:49;;;;;;;12.13;6.93;;;;;;;;;;5051973;28;20059;-61
2021/12/24 08:10:15;;;;;;;10.82;7.10;;;;;;;;;;5056146;28;20044;-60
2021/12/24 08:12:42;;;;;;;14.68;8.70;;;;;;;;;;5065251;28;20044;-58
2021/12/24 08:15:08;;;;;;;18.25;7.65;;;;;;;;;;5053722;28;20033;-60
2021/12/24 08:17:34;;;;;;;12.60;7.50;;;;;;;;;;5086412;28;20067;-57
2021/12/24 08:20:01;;;;;;;14.50;7.22;;;;;;;;;;5086627;28;20031;-65
2021/12/24 08:22:27;;;;;;;12.80;7.97;;;;;;;;;;5085675;28;20040;-59
2021/12/24 08:24:53;;;;;;;14.27;8.25;;;;;;;;;;5087501;28;20040;-61
2021/12/24 08:27:21;;;;;;;12.30;7.88;;;;;;;;;;5087701;28;20392;-60
2021/12/24 08:29:47;;;;;;;15.43;8.60;;;;;;;;;;5086683;28;20040;-61
2021/12/24 08:32:13;;;;;;;17.95;8.27;;;;;;;;;;5074861;28;20043;-62
2021/12/24 08:34:40;;;;;;;16.52;8.68;;;;;;;;;;5081272;28;20067;-62
2021/12/24 08:37:06;;;;;;;16.27;8.38;;;;;;;;;;5084086;28;20165;-60
2021/12/24 08:39:33;;;;;;;17.48;8.98;;;;;;;;;;5088959;28;20097;-58
2021/12/24 08:41:59;;;;;;;15.88;8.70;;;;;;;;;;5087544;28;20031;-60
2021/12/24 08:44:28;;;;;;;18.08;8.63;;;;;;;;;;5082491;28;20520;-60
2021/12/24 08:46:55;;;;;;;22.60;9.70;;;;;;;;;;5082777;28;20048;-59
2021/12/24 08:49:23;;;;;;;16.58;8.27;;;;;;;;;;5088680;28;20032;-59
2021/12/24 08:51:50;;;;;;;17.02;8.60;;;;;;;;;;5081907;28;20492;-59
2021/12/24 08:54:16;;;;;;;20.90;9.77;;;;;;;;;;5089139;28;20063;-59
2021/12/24 08:56:42;;;;;;;16.10;8.93;;;;;;;;;;5081918;28;20474;-59
2021/12/24 08:59:08;;;;;;;38.75;20.73;;;;;;;;;;5089674;28;20038;-58
2021/12/24 09:01:34;;;;;;;15.85;8.50;;;;;;;;;;5086804;28;20036;-60
2021/12/24 09:04:00;;;;;;;18.60;8.45;;;;;;;;;;5089269;28;20040;-63
2021/12/24 09:06:26;;;;;;;15.30;7.70;;;;;;;;;;5087580;28;20127;-61
2021/12/24 09:08:52;;;;;;;;;;;;;;;;;;5079344;28;20120;-61
2021/12/24 09:11:18;;;;;;;14.52;8.18;;;;;;;;;;5080143;28;20438;-60
2021/12/24 09:13:45;;;;;;;13.77;7.15;;;;;;;;;;5086508;28;20063;-59
2021/12/24 09:16:11;;;;;;;12.93;7.47;;;;;;;;;;5073344;28;20044;-59
2021/12/24 09:18:40;;;;;;;18.75;8.40;;;;;;;;;;5069448;28;20036;-58
2021/12/24 09:21:14;;;;;;;23.10;8.50;;;;;;;;;;5064060;28;20040;-59
2021/12/24 09:23:42;;;;;;;17.13;9.30;;;;;;;;;;5068221;28;20051;-60
2021/12/24 09:26:08;;;;;;;23.63;7.75;;;;;;;;;;5062379;28;20366;-60
2021/12/24 09:28:34;;;;;;;14.23;8.60;;;;;;;;;;5070148;28;20484;-60
2021/12/24 09:31:00;;;;;;;18.35;7.95;;;;;;;;;;5063624;28;20037;-56
2021/12/24 09:33:26;;;;;;;21.98;9.60;;;;;;;;;;5067439;28;20428;-58
2021/12/24 09:35:52;;;;;;;19.92;8.95;;;;;;;;;;5068458;28;20036;-61
2021/12/24 09:38:18;;;;;;;16.48;8.25;;;;;;;;;;5064244;28;20049;-58
2021/12/24 09:40:45;;;;;;;21.42;9.63;;;;;;;;;;5067396;28;20040;-59
2021/12/24 09:43:11;;;;;;;15.90;8.68;;;;;;;;;;5068130;28;20117;-58
2021/12/24 09:45:37;;;;;;;19.95;9.07;;;;;;;;;;5068361;28;20036;-56
2021/12/24 09:48:03;;;;;;;17.15;8.07;;;;;;;;;;5088171;28;20034;-53
2021/12/24 09:50:29;;;;;;;20.30;10.48;;;;;;;;;;5081419;28;20473;-56
2021/12/24 09:52:56;;;;;;;21.88;9.45;;;;;;;;;;5086454;28;20040;-58
2021/12/24 09:55:23;;;;;;;21.38;9.15;;;;;;;;;;5077995;28;20453;-55
2021/12/24 09:57:50;;;;;;;14.80;7.22;;;;;;;;;;5085425;28;20036;-57
2021/12/24 10:00:17;;;;;;;22.30;8.68;;;;;;;;;;5084194;28;20044;-59
2021/12/24 10:02:46;;;;;;;19.10;10.13;;;;;;;;;;5066697;28;20058;-58
2021/12/24 10:05:46;;;;;;;14.70;8.63;;;;;;;;;;5065293;28;20032;-57
2021/12/24 10:08:19;;;;;;;18.35;7.30;;;;;;;;;;5056203;28;20056;-59
2021/12/24 10:10:46;;;;;;;16.25;8.30;;;;;;;;;;5063293;28;20033;-60
2021/12/24 10:13:31;;;;;;;19.25;8.35;;;;;;;;;;5065899;28;20047;-60
2021/12/24 10:15:57;;;;;;;19.02;8.18;;;;;;;;;;5057967;28;20042;-58
2021/12/24 10:18:23;;;;;;;;;;;;;;;;;;5067843;28;20036;-59
2021/12/24 10:20:59;;;;;;;17.00;7.97;;;;;;;;;;5065834;28;19992;-60
2021/12/24 10:23:57;;;;;;;15.85;7.00;;;;;;;;;;5065951;28;20040;-60
2021/12/24 10:26:26;;;;;;;17.30;8.27;;;;;;;;;;5044246;28;20743;-57
2021/12/24 10:28:54;;;;;;;16.98;8.77;;;;;;;;;;5064150;28;20093;-56
2021/12/24 10:31:21;;;;;;;19.40;8.55;;;;;;;;;;5073059;28;20036;-59
2021/12/24 10:34:06;;;;;;;20.50;8.18;;;;;;;;;;5084904;28;20799;-60
2021/12/24 10:36:32;;;;;;;22.15;9.82;;;;;;;;;;5083008;28;20043;-57
2021/12/24 10:38:58;;;;;;;22.80;8.65;;;;;;;;;;5082852;28;20037;-59
2021/12/24 10:41:25;;;;;;;21.08;10.25;;;;;;;;;;5076951;28;20044;-58
2021/12/24 10:43:52;;;;;;;18.85;9.77;;;;;;;;;;5085596;28;20162;-59
2021/12/24 10:46:19;;;;;;;20.83;10.15;;;;;;;;;;5068211;28;20089;-61
2021/12/24 10:49:02;;;;;;;21.67;10.35;;;;;;;;;;5065834;28;20037;-60
2021/12/24 10:51:54;;;;;;;17.83;9.85;;;;;;;;;;5064601;28;20124;-60
2021/12/24 10:54:18;;;;;;;32.95;11.60;;;;;;;;;;5065191;28;20129;-60
2021/12/24 10:56:44;;;;;;;26.23;10.10;;;;;;;;;;5059806;28;20420;-59
2021/12/24 10:59:12;;;;;;;29.48;10.93;;;;;;;;;;5063099;28;20032;-59
2021/12/24 11:01:38;;;;;;;23.05;10.43;;;;;;;;;;5058265;28;20514;-60
2021/12/24 11:04:04;;;;;;;26.80;10.27;;;;;;;;;;5064815;28;20083;-58
2021/12/24 11:06:31;;;;;;;28.52;11.32;;;;;;;;;;5065902;28;20040;-58
2021/12/24 11:08:58;;;;;;;22.67;9.95;;;;;;;;;;5065001;28;20074;-60
2021/12/24 11:11:24;;;;;;;27.27;10.75;;;;;;;;;;5066041;28;20530;-57
2021/12/24 11:13:52;;;;;;;23.52;10.35;;;;;;;;;;5057218;28;20152;-56
2021/12/24 11:16:20;;;;;;;22.08;10.20;;;;;;;;;;5069883;28;20418;-60
2021/12/24 11:18:53;;;;;;;20.33;9.10;;;;;;;;;;5086451;28;20032;-59
2021/12/24 11:21:21;;;;;;;20.52;10.57;;;;;;;;;;5081462;28;20758;-61
2021/12/24 11:23:47;;;;;;;21.13;9.10;;;;;;;;;;5086272;28;20043;-61
2021/12/24 11:26:15;;;;;;;16.00;8.43;;;;;;;;;;5078410;28;20033;-57
2021/12/24 11:28:42;;;;;;;18.63;8.88;;;;;;;;;;5086191;28;20399;-61
2021/12/24 11:31:10;;;;;;;18.15;8.65;;;;;;;;;;5079531;28;20042;-60
2021/12/24 11:33:37;;;;;;;19.88;9.35;;;;;;;;;;5085884;28;20656;-60
2021/12/24 11:36:05;;;;;;;21.48;9.20;;;;;;;;;;5080056;28;20071;-61
2021/12/24 11:38:32;;;;;;;20.52;8.55;;;;;;;;;;5084807;28;20040;-60
2021/12/24 11:41:00;;;;;;;26.60;9.88;;;;;;;;;;5078789;28;20170;-61
2021/12/24 11:43:31;;;;;;;18.48;8.40;;;;;;;;;;5084751;28;20044;-61
2021/12/24 11:45:58;;;;;;;17.60;9.05;;;;;;;;;;5068706;28;20051;-62
2021/12/24 11:48:26;;;;;;;23.75;9.00;;;;;;;;;;5066414;28;20044;-60
2021/12/24 11:50:52;;;;;;;24.45;10.40;;;;;;;;;;5059478;28;20119;-62
2021/12/24 11:53:18;;;;;;;21.48;9.13;;;;;;;;;;5065015;28;20032;-60
2021/12/24 11:55:48;;;;;;;17.02;8.60;;;;;;;;;;5059712;28;20556;-61
2021/12/24 11:58:21;;;;;;;17.13;8.55;;;;;;;;;;5065348;28;20593;-60
2021/12/24 12:00:50;;;;;;;19.92;9.13;;;;;;;;;;5059427;28;20055;-59
2021/12/24 12:03:35;;;;;;;21.80;10.32;;;;;;;;;;5065286;28;20041;-61
2021/12/24 12:06:04;;;;;;;18.33;9.52;;;;;;;;;;5064103;28;20032;-61
2021/12/24 12:08:37;;;;;;;19.60;9.35;;;;;;;;;;5063809;28;20116;-59
2021/12/24 12:11:04;;;;;;;22.55;9.63;;;;;;;;;;5059332;28;20033;-61
2021/12/24 12:13:36;;;;;;;30.33;9.43;;;;;;;;;;5065204;28;20102;-62
2021/12/24 12:16:02;;;;;;;23.77;8.60;;;;;;;;;;5063019;28;20052;-60
2021/12/24 12:18:34;;;;;;;27.40;9.32;;;;;;;;;;5087257;28;20569;-61
2021/12/24 12:21:35;;;;;;;23.63;7.85;;;;;;;;;;5083047;28;20036;-60
2021/12/24 12:26:42;;;;;;;14.60;7.97;;;;;;;;;;5076664;28;20040;-61
2021/12/24 12:29:19;;;;;;;17.98;7.63;;;;;;;;;;5084606;28;20139;-61
2021/12/24 12:31:45;;;;;;;14.82;7.50;;;;;;;;;;5076638;28;20595;-60
2021/12/24 12:34:44;;;;;;;17.60;7.80;;;;;;;;;;5076742;28;20044;-61
2021/12/24 12:37:13;;;;;;;12.40;6.95;;;;;;;;;;5067628;28;20063;-63
2021/12/24 12:39:39;;;;;;;13.02;6.60;;;;;;;;;;5086173;28;20040;-61
2021/12/24 12:42:05;;;;;;;12.05;6.13;;;;;;;;;;5080979;28;20040;-59
2021/12/24 12:44:33;;;;;;;16.00;5.97;;;;;;;;;;5081585;28;20531;-61
2021/12/24 12:47:12;;;;;;;13.85;5.65;;;;;;;;;;5078337;28;20085;-60
2021/12/24 12:49:39;;;;;;;13.35;6.13;;;;;;;;;;5088531;28;20036;-61
2021/12/24 12:52:07;;;;;;;13.35;5.80;;;;;;;;;;5081396;28;20702;-61
2021/12/24 12:54:47;;;;;;;9.98;5.50;;;;;;;;;;5083142;28;20123;-60
2021/12/24 12:57:16;;;;;;;13.32;5.93;;;;;;;;;;5087728;28;20040;-63
2021/12/24 13:00:02;;;;;;;15.00;4.90;;;;;;;;;;5088077;28;20480;-60
2021/12/24 13:02:47;;;;;;;12.73;5.57;;;;;;;;;;5084918;28;20109;-60
2021/12/24 13:05:13;;;;;;;9.45;5.05;;;;;;;;;;5078077;28;20111;-62
2021/12/24 13:07:39;;;;;;;11.40;5.60;;;;;;;;;;5087652;28;20040;-62
2021/12/24 13:10:06;;;;;;;11.25;5.35;;;;;;;;;;5086412;28;20071;-62
2021/12/24 13:12:32;;;;;;;7.20;4.68;;;;;;;;;;5085949;28;20099;-61
2021/12/24 13:15:01;;;;;;;9.05;4.78;;;;;;;;;;5083969;28;20036;-63
2021/12/24 13:17:35;;;;;;;14.05;5.93;;;;;;;;;;5060768;28;20518;-61
2021/12/24 13:20:16;;;;;;;10.68;5.50;;;;;;;;;;5050829;28;20048;-61
2021/12/24 13:22:43;;;;;;;16.50;5.18;;;;;;;;;;5068150;28;20427;-62
2021/12/24 13:25:10;;;;;;;10.27;4.68;;;;;;;;;;5063956;28;20083;-61
2021/12/24 13:27:39;;;;;;;11.70;4.95;;;;;;;;;;5066120;28;20090;-60
2021/12/24 13:30:10;;;;;;;19.33;8.70;;;;;;;;;;5067187;28;20048;-60
2021/12/24 13:32:40;;;;;;;10.90;4.63;;;;;;;;;;5066908;28;20068;-60
2021/12/24 13:35:07;;;;;;;12.60;6.07;;;;;;;;;;5062512;28;20545;-63
2021/12/24 13:37:33;;;;;;;12.93;4.88;;;;;;;;;;5065370;28;20063;-59
2021/12/24 13:40:00;;;;;;;14.60;5.20;;;;;;;;;;5066414;28;20039;-60
2021/12/24 13:42:27;;;;;;;11.38;5.47;;;;;;;;;;5063163;28;20048;-62
2021/12/24 13:45:01;;;;;;;8.75;4.70;;;;;;;;;;5062341;28;20044;-60
2021/12/24 13:47:41;;;;;;;10.80;5.55;;;;;;;;;;5080378;28;20135;-63
2021/12/24 13:55:37;;;;;;;10.48;4.97;;;;;;;;;;5081753;28;20082;-63
2021/12/24 13:58:08;;;;;;;7.38;4.65;;;;;;;;;;5079385;28;20090;-62
2021/12/24 14:00:36;;;;;;;13.63;5.63;;;;;;;;;;5078383;28;20135;-58
2021/12/24 14:03:04;;;;;;;11.90;4.57;;;;;;;;;;5067876;28;20040;-62
2021/12/24 14:05:30;;;;;;;9.27;4.28;;;;;;;;;;5060576;28;20041;-61
2021/12/24 14:08:22;;;;;;;10.88;4.43;;;;;;;;;;5048831;28;20534;-59
2021/12/24 14:10:50;;;;;;;6.30;4.57;;;;;;;;;;5058162;28;20052;-60
2021/12/24 14:13:26;;;;;;;10.52;4.68;;;;;;;;;;5061641;28;20240;-62
2021/12/24 14:19:13;;;;;;;10.13;4.90;;;;;;;;;;5057903;28;20131;-62
2021/12/24 14:24:04;;;;;;;11.23;5.35;;;;;;;;;;5054884;28;20052;-63
2021/12/24 14:26:34;;;;;;;9.77;4.50;;;;;;;;;;5046643;28;20037;-60
2021/12/24 14:29:05;;;;;;;9.10;5.20;;;;;;;;;;5057642;28;20036;-63
2021/12/24 14:31:47;;;;;;;10.30;5.43;;;;;;;;;;5062579;28;20044;-61
2021/12/24 14:34:14;;;;;;;12.40;6.53;;;;;;;;;;5061099;28;20079;-62
2021/12/24 14:36:55;;;;;;;15.77;8.18;;;;;;;;;;5048872;28;20064;-63
2021/12/24 14:39:22;;;;;;;10.38;5.30;;;;;;;;;;5055293;28;20064;-60
2021/12/24 14:41:48;;;;;;;12.93;5.40;;;;;;;;;;5049661;28;20493;-61
2021/12/24 14:44:29;;;;;;;22.45;11.18;;;;;;;;;;5056697;28;20116;-61
2021/12/24 14:46:56;;;;;;;14.00;5.70;;;;;;;;;;5053064;28;20049;-61
2021/12/24 14:49:30;;;;;;;11.73;6.25;;;;;;;;;;5055135;28;20041;-60
2021/12/24 14:52:13;;;;;;;15.23;6.40;;;;;;;;;;5051691;28;20119;-61
2021/12/24 14:54:59;;;;;;;12.45;6.15;;;;;;;;;;5047117;28;20373;-61
2021/12/24 14:57:25;;;;;;;10.57;5.67;;;;;;;;;;5044393;28;20582;-61
2021/12/24 14:59:51;;;;;;;13.52;7.15;;;;;;;;;;5049611;28;20049;-62
2021/12/24 15:02:17;;;;;;;13.95;7.05;;;;;;;;;;5059524;28;20133;-60
2021/12/24 15:04:43;;;;;;;11.65;5.85;;;;;;;;;;5047380;28;20060;-61
2021/12/24 15:07:09;;;;;;;14.80;7.00;;;;;;;;;;5064944;28;20490;-61
2021/12/24 15:09:38;;;;;;;13.93;6.70;;;;;;;;;;5054163;28;20055;-60
2021/12/24 15:12:20;;;;;;;18.85;6.82;;;;;;;;;;5056563;28;20045;-61
2021/12/24 15:14:47;;;;;;;13.73;6.35;;;;;;;;;;5053826;28;20076;-62
2021/12/24 15:17:13;;;;;;;14.07;6.55;;;;;;;;;;5051554;28;20059;-61
2021/12/24 15:19:39;;;;;;;17.10;7.32;;;;;;;;;;5051945;28;20033;-61
2021/12/24 15:22:05;;;;;;;11.85;6.75;;;;;;;;;;5050528;28;20131;-61
2021/12/24 15:24:31;;;;;;;15.93;7.07;;;;;;;;;;5055798;28;20669;-62
2021/12/24 15:26:58;;;;;;;23.05;11.80;;;;;;;;;;5047646;28;20389;-61
2021/12/24 15:29:24;;;;;;;18.65;7.35;;;;;;;;;;5049299;28;20048;-63
2021/12/24 15:31:50;;;;;;;13.20;7.95;;;;;;;;;;5050075;28;20052;-60
2021/12/24 15:34:16;;;;;;;;;;;;;;;;;;5056315;28;20435;-62
2021/12/24 15:36:43;;;;;;;15.93;7.13;;;;;;;;;;5048235;28;19917;-59
2021/12/24 15:39:09;;;;;;;17.88;9.45;;;;;;;;;;5055433;28;20036;-61
2021/12/24 15:41:35;;;;;;;15.63;6.82;;;;;;;;;;5048954;28;20056;-61
2021/12/24 15:44:01;;;;;;;18.63;7.20;;;;;;;;;;5056120;28;20036;-61
2021/12/24 15:46:27;;;;;;;15.95;7.50;;;;;;;;;;5063891;28;20453;-62
2021/12/24 15:48:53;;;;;;;16.85;7.30;;;;;;;;;;5059090;28;20131;-62
2021/12/24 15:51:19;;;;;;;15.15;6.97;;;;;;;;;;5052021;28;20067;-61
2021/12/24 15:53:45;;;;;;;;;;;;;;;;;;5058642;28;20063;-61
2021/12/24 15:56:11;;;;;;;14.85;6.95;;;;;;;;;;5048433;28;19921;-62
2021/12/24 15:58:38;;;;;;;19.15;6.72;;;;;;;;;;5050084;28;20083;-62
2021/12/24 16:01:05;;;;;;;14.77;6.63;;;;;;;;;;5048724;28;20770;-61
2021/12/24 16:03:31;;;;;;;12.15;6.13;;;;;;;;;;5055916;28;20045;-61
2021/12/24 16:05:57;;;;;;;;;;;;;;;;;;5052484;28;20060;-63